»·PEaware :: N287JB KLAX-KPSP

N287JB :: KLAX-KPSP

FLIGHT INFORMATION

Flight Status: Arrived
Operator: Privately registered:
United States
More flights under this callsign
Pilot: John L. (16055)
Aircraft: Unknown
(VIPJ)
More flights by this aircraft type
Origin: KLAX Los Angeles Intl
United States
Destination: KPSP Palm Springs Intl
United States
More flights between these airports :: More routes between these airports
Route: +LAXX1 TRM
File this flight plan on PilotEdge
Remarks: N287JB
Altitude:
(Current/Filed)
19,000ft
Speed:
(Current/Filed)
350kts
Departed: 14-Nov-17 10:21 AM
Arrived: 14-Nov-17 11:04 AM
Distance/Time
Traveled:
95nm/0:43
Distance/Time
To Go:
Arrived

Flight Plot

Page will automatically refresh every two minutes.

Flight plan parsing failed; only flown route is shown


Map Options




Map Legend


Flown Route
Filed Route
Departure Airport
Arrival Airport
Navaid (VOR, NDB)
Fix

Horizontal Profiles

Position Reports

Time Latitude Longitude Heading Altitude Ground
Speed
14-Nov-17 10:00 33.932906 -118.399811 78 129ft 0kts
14-Nov-17 10:01 33.932906 -118.399811 78 129ft 0kts
14-Nov-17 10:02 33.932906 -118.399811 78 129ft 0kts
14-Nov-17 10:03 33.932906 -118.399811 78 129ft 0kts
14-Nov-17 10:04 33.932906 -118.399811 78 129ft 0kts
14-Nov-17 10:05 33.932906 -118.399811 78 129ft 0kts
14-Nov-17 10:06 33.932906 -118.399811 78 129ft 0kts
14-Nov-17 10:07 33.932906 -118.399811 78 129ft 0kts
14-Nov-17 10:08 33.932906 -118.399811 78 129ft 0kts
14-Nov-17 10:09 33.932906 -118.399811 78 129ft 0kts
14-Nov-17 10:10 33.932906 -118.399811 78 129ft 0kts
14-Nov-17 10:11 33.932906 -118.399811 78 129ft 0kts
14-Nov-17 10:12 33.932906 -118.399811 78 129ft 0kts
14-Nov-17 10:13 33.932906 -118.399811 78 129ft 0kts
14-Nov-17 10:14 33.932906 -118.399811 78 129ft 0kts
14-Nov-17 10:15 33.932906 -118.399811 78 129ft 0kts
14-Nov-17 10:16 33.932906 -118.399811 78 129ft 0kts
14-Nov-17 10:17 33.932906 -118.399811 78 129ft 0kts
14-Nov-17 10:18 33.932906 -118.399811 78 129ft 0kts
14-Nov-17 10:19 33.932906 -118.399811 78 129ft 0kts
14-Nov-17 10:20 33.933034 -118.399533 41 129ft 8kts
14-Nov-17 10:21 33.934571 -118.397854 80 129ft 17kts
14-Nov-17 10:22 33.935150 -118.392107 83 129ft 26kts
14-Nov-17 10:23 33.935813 -118.385790 83 129ft 21kts
14-Nov-17 10:24 33.936322 -118.382880 37 129ft 0kts
14-Nov-17 10:25 33.936653 -118.382781 359 129ft 9kts
14-Nov-17 10:26 33.936041 -118.399046 268 457ft 146kts
14-Nov-17 10:27 33.931604 -118.448252 262 3047ft 222kts
14-Nov-17 10:28 33.883954 -118.509510 225 4882ft 343kts
14-Nov-17 10:29 33.816552 -118.584552 225 8390ft 328kts
14-Nov-17 10:30 33.753919 -118.592907 172 12250ft 266kts
14-Nov-17 10:31 33.671735 -118.569439 172 13022ft 339kts
14-Nov-17 10:32 33.582709 -118.544459 171 13031ft 341kts
14-Nov-17 10:33 33.493699 -118.518290 155 12985ft 348kts
14-Nov-17 10:34 33.472156 -118.414496 80 15050ft 374kts
14-Nov-17 10:35 33.482077 -118.301109 82 15030ft 372kts
14-Nov-17 10:36 33.490786 -118.188500 82 15020ft 371kts
14-Nov-17 10:37 33.499864 -118.068908 82 15009ft 370kts
14-Nov-17 10:38 33.508784 -117.949840 82 15011ft 370kts
14-Nov-17 10:39 33.517369 -117.833788 82 15014ft 370kts
14-Nov-17 10:40 33.525603 -117.721039 82 15013ft 371kts
14-Nov-17 10:41 33.533813 -117.607182 82 15012ft 371kts
14-Nov-17 10:42 33.542091 -117.490851 82 15011ft 370kts
14-Nov-17 10:43 33.550292 -117.374067 82 15009ft 370kts
14-Nov-17 10:44 33.558052 -117.262078 83 15008ft 370kts
14-Nov-17 10:45 33.564499 -117.167881 83 15017ft 371kts
14-Nov-17 10:46 33.570087 -117.085461 83 15021ft 370kts
14-Nov-17 10:47 33.575437 -117.005803 83 15002ft 369kts
14-Nov-17 10:48 33.582580 -116.898078 84 14973ft 366kts
14-Nov-17 10:49 33.589620 -116.790225 84 14454ft 353kts
14-Nov-17 10:50 33.595881 -116.693209 84 12574ft 294kts
14-Nov-17 10:51 33.601416 -116.606306 83 10688ft 265kts
14-Nov-17 10:52 33.606523 -116.525626 83 8942ft 243kts
14-Nov-17 10:53 33.610893 -116.455936 83 8931ft 219kts
14-Nov-17 10:54 33.616035 -116.386947 81 8922ft 220kts
14-Nov-17 10:55 33.622200 -116.318675 82 8919ft 220kts
14-Nov-17 10:56 33.628493 -116.249508 82 8919ft 220kts
14-Nov-17 10:57 33.633083 -116.179065 71 8910ft 219kts
14-Nov-17 10:58 33.670067 -116.182267 280 8038ft 192kts
14-Nov-17 10:59 33.671888 -116.234543 273 6808ft 191kts
14-Nov-17 11:00 33.674206 -116.286813 274 5568ft 190kts
14-Nov-17 11:01 33.676777 -116.339702 274 4315ft 191kts
14-Nov-17 11:02 33.696799 -116.384270 321 3039ft 189kts
14-Nov-17 11:03 33.727508 -116.413135 322 2839ft 154kts
14-Nov-17 11:04 33.753455 -116.437303 322 2338ft 127kts
14-Nov-17 11:05 33.774413 -116.456731 322 1760ft 113kts
14-Nov-17 11:06 33.794702 -116.475531 322 1142ft 112kts
14-Nov-17 11:07 33.813593 -116.493324 323 720ft 96kts
14-Nov-17 11:08 33.827737 -116.506056 325 481ft 49kts
14-Nov-17 11:09 33.828774 -116.508408 267 481ft 16kts
14-Nov-17 11:10 33.828939 -116.511396 272 481ft 1kts
14-Nov-17 11:11 33.828939 -116.511402 272 481ft 0kts
14-Nov-17 11:12 33.828939 -116.511402 272 481ft 0kts
14-Nov-17 11:13 33.828939 -116.511402 272 481ft 0kts
14-Nov-17 11:14 33.828939 -116.511402 272 481ft 0kts
14-Nov-17 11:15 33.828939 -116.511402 272 481ft 0kts
14-Nov-17 11:16 33.828939 -116.511402 272 481ft 0kts
14-Nov-17 11:17 33.828939 -116.511402 272 481ft 0kts
14-Nov-17 11:18 33.828939 -116.511402 272 481ft 0kts
14-Nov-17 11:19 33.828939 -116.511402 272 481ft 0kts
14-Nov-17 11:20 33.828939 -116.511402 272 481ft 0kts
14-Nov-17 11:21 33.828939 -116.511402 272 481ft 0kts
14-Nov-17 11:22 33.828939 -116.511402 272 481ft 0kts
14-Nov-17 11:23 33.828939 -116.511402 272 481ft 0kts
14-Nov-17 11:24 33.828939 -116.511402 272 481ft 0kts

Navigation Log

Ident Type
Flight plan parsing failed, navigation log unavailable